Flight Track Log - Related Links

Times and Time Zones

All times are in EDT time to prevent confusion due to time zone crossing. See the VHT11 flight status page for this flight to view local times or setup timezone preferences in your user account.


Time Position Orientation Groundspeed Altitude Reporting Facility
EDT Latitude Longitude Course Direction KTS MPH feet Rate Location/Type
Mon 09:38:44 PM 36.0667 -115.1739 203° Southwest 160 184 3,000  Level Los Angeles Center
Mon 09:39:26 PM 36.0375 -115.1889 203° Southwest 162 186 4,100 1,263 Climbing Los Angeles Center
Mon 09:40:19 PM 35.9983 -115.2131 207° Southwest 191 220 5,000 1,947 Climbing Los Angeles Center
Mon 09:41:20 PM 35.9653 -115.2944 243° Southwest 258 297 7,800 2,780 Climbing Los Angeles Center
Mon 09:42:22 PM 35.8883 -115.3097 189° South 273 314 10,700 2,758 Climbing Los Angeles Center
Mon 09:43:24 PM 35.7833 -115.3069 179° South 298 343 13,500 2,488 Climbing Los Angeles Center
Mon 09:44:25 PM 35.6847 -115.2950 174° South 330 380 15,800 2,439 Climbing Los Angeles Center
Mon 09:45:27 PM 35.6094 -115.3772 222° Southwest 350 403 18,500 2,732 Climbing Los Angeles Center
Mon 09:46:28 PM 35.5442 -115.4692 229° Southwest 354 407 21,400 1,707 Climbing Los Angeles Center
Mon 09:47:30 PM 35.4767 -115.5617 228° Southwest 360 414 22,000 244 Climbing Los Angeles Center
Mon 09:48:31 PM 35.3994 -115.6642 227° Southwest 416 479 21,900  Descending Los Angeles Center
Mon 09:49:33 PM 35.3211 -115.7675 227° Southwest 418 481 22,000  Climbing Los Angeles Center
Mon 09:50:34 PM 35.2456 -115.8706 228° Southwest 410 472 21,900 -49 Descending Los Angeles Center
Mon 09:51:36 PM 35.1683 -115.9722 227° Southwest 408 470 21,900  Level Los Angeles Center
Mon 09:52:37 PM 35.0758 -116.0917 227° Southwest 404 465 21,900 49 Level Los Angeles Center
Mon 09:53:39 PM 34.9997 -116.1917 227° Southwest 403 464 22,000 -341 Climbing Los Angeles Center
Mon 09:54:40 PM 34.9608 -116.3172 249° West 400 460 21,200 -780 Descending Los Angeles Center
Mon 09:55:42 PM 34.9353 -116.4533 257° West 409 471 20,400 -533 Descending Los Angeles Center
Mon 09:56:55 PM 34.9078 -116.5897 256° West 414 476 20,000 -178 Descending Los Angeles Center
Mon 09:57:57 PM 34.8778 -116.7464 257° West 398 458 20,000  Level Los Angeles Center
Mon 09:58:58 PM 34.8522 -116.8725 256° West 386 444 20,000  Level Los Angeles Center
Mon 10:00:12 PM 34.8219 -117.0261 257° West 387 445 20,000  Level Los Angeles Center
Mon 10:01:14 PM 34.7958 -117.1536 256° West 387 445 20,000  Level Los Angeles Center
Mon 10:02:16 PM 34.7644 -117.3064 256° West 385 443 20,000  Level Los Angeles Center
Mon 10:03:16 PM 34.7383 -117.4353 256° West 389 448 20,000 -295 Level Los Angeles Center
Mon 10:04:18 PM 34.7125 -117.5631 256° West 386 444 19,400 -1,610 Descending Los Angeles Center
Mon 10:05:19 PM 34.6853 -117.6950 256° West 397 457 16,700 -2,585 Descending Los Angeles Center
Mon 10:06:21 PM 34.6589 -117.8236 256° West 393 452 14,100 -2,488 Descending Los Angeles Center
Mon 10:07:22 PM 34.6400 -117.9533 260° West 386 444 11,600 -1,805 Descending Los Angeles Center
Mon 10:08:24 PM 34.6292 -118.0706 264° West 352 405 10,400 -1,065 Descending Los Angeles Center
Mon 10:09:26 PM 34.6067 -118.1761 256° West 298 343 9,400 -800 Descending Los Angeles Center
Mon 10:10:39 PM 34.5869 -118.2586 254° West 263 303 8,600 -622 Descending Los Angeles Center
Mon 10:11:41 PM 34.5636 -118.3619 255° West 267 307 8,000 -339 Descending Los Angeles Center
Mon 10:12:43 PM 34.5428 -118.4431 253° West 256 295 7,900 -774 Descending Los Angeles Center
Mon 10:13:45 PM 34.4858 -118.5011 220° Southwest 265 305 6,400 -1,210 Descending Los Angeles Center
Mon 10:14:47 PM 34.4053 -118.5436 204° Southwest 255 293 5,400 -683 Descending Los Angeles Center
Mon 10:15:48 PM 34.3400 -118.5669 196° South 250 288 5,000 -195 Descending Los Angeles Center
Mon 10:16:50 PM 34.2792 -118.5664 180° South 233 268 5,000 -390 Level Los Angeles Center
Mon 10:17:51 PM 34.2192 -118.5575 173° South 222 255 4,200 -976 Descending Los Angeles Center
Mon 10:18:53 PM 34.1978 -118.4981 113° Southeast 229 264 3,000 -1,161 Descending Los Angeles Center
Mon 10:19:55 PM 34.1997 -118.4283 88° East 216 249 1,800 -919 Descending Los Angeles Center
Mon 10:20:57 PM 34.1983 -118.3658 92° East 200 230 1,100 -677 Descending Los Angeles Center
Mon 10:22:00 PM 34.1018 -118.3818 188° South  Level Estimated
Mon 10:29:00 PM 33.9425 -118.4081 188° South  Level Estimated
Mon 10:30:00 PM 33.9425 -118.4081 164° South  Level Estimated
Mon 10:31:00 PM 33.9425 -118.4081 164° South  Level Estimated
Mon 10:32:00 PM 33.9425 -118.4081 164° South  Level Estimated
Mon 10:33:00 PM 33.9425 -118.4081 164° South  Level Estimated
Mon 10:34:00 PM 33.9425 -118.4081 164° South  Level Estimated
Mon 10:35:00 PM 33.9425 -118.4081 164° South  Level Estimated

Login

Don't have an account? Register now (free) for customized features, flight alerts, and more!